createdAt,value
2019-04-20T00:00:44.347Z,10.80
2019-04-20T00:01:29.252Z,9.53
2019-04-20T00:02:13.742Z,10.97
2019-04-20T00:02:51.125Z,11.20
2019-04-20T00:03:30.914Z,10.03
2019-04-20T00:04:05.392Z,11.37
2019-04-20T00:04:45.221Z,9.13
2019-04-20T00:05:23.304Z,9.77
2019-04-20T00:06:01.504Z,10.07
2019-04-20T00:06:46.260Z,10.83
2019-04-20T00:07:24.585Z,10.90
2019-04-20T00:08:02.236Z,11.30
2019-04-20T00:08:42.668Z,8.63
2019-04-20T00:09:24.681Z,10.70
2019-04-20T00:10:09.608Z,9.70
2019-04-20T00:10:47.369Z,11.43
2019-04-20T00:11:26.300Z,9.67
2019-04-20T00:12:07.070Z,9.40
2019-04-20T00:12:55.639Z,9.00
2019-04-20T00:13:32.107Z,9.90
2019-04-20T00:14:05.609Z,9.20
2019-04-20T00:14:41.303Z,9.13
2019-04-20T00:15:19.731Z,9.97
2019-04-20T00:15:57.864Z,10.37
2019-04-20T00:16:36.144Z,9.57
2019-04-20T00:17:14.118Z,9.50
2019-04-20T00:17:58.970Z,9.70
2019-04-20T00:18:43.055Z,8.70
2019-04-20T00:19:22.524Z,9.37
2019-04-20T00:19:57.797Z,10.17
2019-04-20T00:20:38.380Z,10.37
2019-04-20T00:21:33.902Z,11.10
2019-04-20T00:22:24.617Z,9.93
2019-04-20T00:23:07.871Z,9.80
2019-04-20T00:23:50.269Z,10.80
2019-04-20T00:25:00.471Z,9.17
2019-04-20T00:26:02.864Z,9.83
2019-04-20T00:27:08.542Z,10.70
2019-04-20T00:27:38.931Z,8.90
2019-04-20T00:28:24.157Z,10.07
2019-04-20T00:29:07.105Z,10.20
2019-04-20T00:29:45.331Z,10.60
2019-04-20T00:30:28.762Z,9.63
2019-04-20T00:31:05.541Z,10.57
2019-04-20T00:31:43.054Z,9.50
2019-04-20T00:32:18.866Z,9.87
2019-04-20T00:32:58.538Z,9.83
2019-04-20T00:33:40.985Z,11.03
2019-04-20T00:34:18.348Z,9.90
2019-04-20T00:34:50.658Z,8.80
2019-04-20T00:35:29.332Z,8.43
2019-04-20T00:36:08.964Z,9.17
2019-04-20T00:36:47.455Z,9.47
2019-04-20T00:37:25.482Z,8.80
2019-04-20T00:38:05.649Z,9.50
2019-04-20T00:38:50.889Z,10.23
2019-04-20T00:39:23.795Z,8.50
2019-04-20T00:40:01.856Z,9.27
2019-04-20T00:40:39.783Z,10.33
2019-04-20T00:41:19.428Z,8.83
2019-04-20T00:42:03.569Z,9.40
2019-04-20T00:42:45.202Z,8.63
2019-04-20T00:43:21.045Z,10.00
2019-04-20T00:44:06.901Z,9.73
2019-04-20T00:44:45.484Z,9.30
2019-04-20T00:45:27.470Z,9.23
2019-04-20T00:46:08.780Z,8.90
2019-04-20T00:46:58.759Z,8.63
2019-04-20T00:47:38.428Z,9.10
2019-04-20T00:48:19.152Z,9.13
2019-04-20T00:48:57.237Z,8.60
2019-04-20T00:49:45.904Z,8.90
2019-04-20T00:50:28.284Z,9.50
2019-04-20T00:51:06.935Z,8.87
2019-04-20T00:51:50.772Z,8.13
2019-04-20T00:52:42.072Z,9.73
2019-04-20T00:53:06.833Z,7.60
2019-04-20T00:53:39.717Z,8.00
2019-04-20T00:54:16.015Z,7.70
2019-04-20T00:54:53.985Z,8.20
2019-04-20T00:55:36.071Z,6.53
2019-04-20T00:56:14.167Z,7.67
2019-04-20T00:57:05.755Z,8.30
2019-04-20T00:57:41.781Z,7.77
2019-04-20T00:58:20.082Z,7.77
2019-04-20T00:59:06.153Z,7.23
2019-04-20T00:59:51.872Z,6.83
2019-04-20T01:00:27.332Z,7.53
2019-04-20T01:01:17.129Z,6.53
2019-04-20T01:01:51.947Z,7.57
2019-04-20T01:02:26.168Z,7.00
2019-04-20T01:03:10.687Z,7.80
2019-04-20T01:03:48.649Z,7.03
2019-04-20T01:04:34.585Z,7.10
2019-04-20T01:05:10.975Z,7.67
2019-04-20T01:06:11.081Z,7.77
2019-04-20T01:07:01.645Z,7.77
2019-04-20T01:07:52.049Z,7.17
2019-04-20T01:08:44.609Z,8.50
2019-04-20T01:09:43.752Z,9.17
2019-04-20T01:10:23.749Z,8.70
2019-04-20T01:11:02.651Z,6.87
2019-04-20T01:11:45.477Z,7.50
2019-04-20T01:12:28.020Z,6.80
2019-04-20T01:13:11.069Z,7.83
2019-04-20T01:13:52.037Z,7.27
2019-04-20T01:14:36.294Z,6.90
2019-04-20T01:15:16.655Z,7.33
2019-04-20T01:15:57.356Z,6.77
2019-04-20T01:16:45.211Z,7.33
2019-04-20T01:17:15.777Z,7.73
2019-04-20T01:17:53.756Z,7.93
2019-04-20T01:18:31.753Z,7.80
2019-04-20T01:19:10.856Z,7.57
2019-04-20T01:19:52.603Z,7.20
2019-04-20T01:20:29.694Z,6.33
2019-04-20T01:21:14.052Z,7.63
2019-04-20T01:21:58.197Z,7.17
2019-04-20T01:22:40.283Z,6.30
2019-04-20T01:23:17.192Z,7.50
2019-04-20T01:23:58.578Z,7.17
2019-04-20T01:24:39.882Z,8.17
2019-04-20T01:25:22.129Z,5.97
2019-04-20T01:26:01.179Z,7.60
2019-04-20T01:26:41.900Z,7.30
2019-04-20T01:27:29.882Z,7.50
2019-04-20T01:28:28.772Z,7.40
2019-04-20T01:28:46.377Z,6.33
2019-04-20T01:29:26.355Z,6.20
2019-04-20T01:30:07.485Z,6.10
2019-04-20T01:30:43.149Z,5.80
2019-04-20T01:31:27.282Z,6.90
2019-04-20T01:32:10.558Z,6.83
2019-04-20T01:32:57.606Z,6.80
2019-04-20T01:33:34.305Z,7.03
2019-04-20T01:34:06.179Z,7.77
2019-04-20T01:34:45.913Z,6.77
2019-04-20T01:35:35.538Z,6.23
2019-04-20T01:36:19.582Z,7.00
2019-04-20T01:36:55.702Z,6.70
2019-04-20T01:37:35.440Z,8.77
2019-04-20T01:38:16.626Z,6.60
2019-04-20T01:38:56.414Z,7.67
2019-04-20T01:39:28.485Z,6.47
2019-04-20T01:40:04.536Z,6.57
2019-04-20T01:40:42.129Z,6.00
2019-04-20T01:41:22.401Z,6.47
2019-04-20T01:42:02.388Z,6.83
2019-04-20T01:42:40.407Z,6.70
2019-04-20T01:43:18.503Z,6.63
2019-04-20T01:43:56.409Z,6.80
2019-04-20T01:44:41.237Z,7.27
2019-04-20T01:45:21.445Z,7.40
2019-04-20T01:46:03.301Z,7.30
2019-04-20T01:46:39.190Z,8.43
2019-04-20T01:47:19.073Z,6.47
2019-04-20T01:47:59.459Z,6.57
2019-04-20T01:48:39.951Z,6.90
2019-04-20T01:49:23.858Z,7.20
2019-04-20T01:50:08.483Z,7.00
2019-04-20T01:50:49.963Z,7.63
2019-04-20T01:51:27.155Z,7.47
2019-04-20T01:52:10.953Z,7.50
2019-04-20T01:52:56.525Z,7.30
2019-04-20T01:53:44.228Z,6.50
2019-04-20T01:54:27.588Z,7.03
2019-04-20T01:55:28.887Z,5.80
2019-04-20T01:56:08.303Z,5.17
2019-04-20T01:56:43.430Z,6.67
2019-04-20T01:57:32.965Z,7.57
2019-04-20T01:58:35.195Z,6.97
2019-04-20T01:59:33.433Z,7.80
2019-04-20T02:00:35.216Z,8.37
2019-04-20T02:01:42.448Z,7.43
2019-04-20T02:02:50.332Z,7.40
2019-04-20T02:04:06.791Z,6.10
2019-04-20T02:04:52.083Z,6.00
2019-04-20T02:05:32.711Z,6.73
2019-04-20T02:06:12.985Z,5.50
2019-04-20T02:06:53.938Z,7.10
2019-04-20T02:07:36.715Z,7.03
2019-04-20T02:08:14.656Z,7.70
2019-04-20T02:08:58.232Z,7.27
2019-04-20T02:09:34.489Z,6.50
2019-04-20T02:10:15.127Z,7.63
2019-04-20T02:10:57.431Z,6.90
2019-04-20T02:11:38.394Z,6.57
2019-04-20T02:12:19.098Z,6.20
2019-04-20T02:12:59.812Z,6.87
2019-04-20T02:13:44.453Z,6.17
2019-04-20T02:14:30.672Z,6.00
2019-04-20T02:15:04.315Z,6.80
2019-04-20T02:15:45.114Z,7.30
2019-04-20T02:16:28.827Z,6.80
2019-04-20T02:17:11.722Z,6.83
2019-04-20T02:17:46.605Z,6.80
2019-04-20T02:18:35.089Z,6.43
2019-04-20T02:19:13.886Z,5.83
2019-04-20T02:19:59.843Z,6.40
2019-04-20T02:20:41.789Z,6.80
2019-04-20T02:21:21.560Z,6.33
2019-04-20T02:21:55.696Z,7.27
2019-04-20T02:22:42.164Z,6.93
2019-04-20T02:23:14.548Z,6.03
2019-04-20T02:23:49.973Z,5.83
2019-04-20T02:24:23.733Z,5.50
2019-04-20T02:25:05.829Z,5.67
2019-04-20T02:25:44.015Z,5.37
2019-04-20T02:26:21.884Z,6.03
2019-04-20T02:26:59.948Z,6.20
2019-04-20T02:27:45.403Z,5.73
2019-04-20T02:28:38.273Z,5.40
2019-04-20T02:29:37.559Z,5.33
2019-04-20T02:29:58.274Z,5.90
2019-04-20T02:31:45.265Z,5.60
2019-04-20T02:32:17.197Z,5.30
2019-04-20T02:32:55.629Z,6.03
2019-04-20T02:33:47.422Z,6.53
2019-04-20T02:34:24.088Z,5.00
2019-04-20T02:35:14.150Z,5.83
2019-04-20T02:36:29.982Z,6.70
2019-04-20T02:36:59.687Z,6.80
2019-04-20T02:37:56.745Z,6.50
2019-04-20T02:39:37.598Z,6.90
2019-04-20T02:40:19.375Z,6.17
2019-04-20T02:41:37.663Z,5.93
2019-04-20T02:43:03.695Z,6.70
2019-04-20T02:43:46.825Z,6.57
2019-04-20T02:44:27.919Z,6.00
2019-04-20T02:45:00.836Z,6.10
2019-04-20T02:46:07.117Z,7.23
2019-04-20T02:47:43.620Z,7.07
2019-04-20T02:48:08.104Z,6.13
2019-04-20T02:49:06.058Z,6.27
2019-04-20T02:49:36.005Z,7.80
2019-04-20T02:50:59.699Z,6.77
2019-04-20T02:52:13.485Z,5.97
2019-04-20T02:52:55.947Z,6.57
2019-04-20T02:53:41.194Z,6.40
2019-04-20T02:55:01.759Z,6.23
2019-04-20T02:58:15.279Z,6.30
2019-04-20T02:59:14.761Z,6.20
2019-04-20T03:00:12.411Z,5.40
2019-04-20T03:00:52.612Z,5.00
2019-04-20T03:01:51.849Z,5.67
2019-04-20T03:02:18.182Z,5.77
2019-04-20T03:02:56.106Z,6.53
2019-04-20T03:03:32.777Z,5.50
2019-04-20T03:04:16.269Z,6.97
2019-04-20T03:05:00.065Z,5.53
2019-04-20T03:05:40.632Z,5.37
2019-04-20T03:06:19.587Z,5.60
2019-04-20T03:07:04.152Z,5.97
2019-04-20T03:07:50.402Z,5.17
2019-04-20T03:08:26.241Z,4.73
2019-04-20T03:09:09.160Z,5.17
2019-04-20T03:09:44.258Z,5.67
2019-04-20T03:10:34.226Z,5.50
2019-04-20T03:11:17.765Z,5.80
2019-04-20T03:12:00.945Z,5.00
2019-04-20T03:12:34.461Z,5.20
2019-04-20T03:13:14.405Z,5.30
2019-04-20T03:13:55.642Z,4.20
2019-04-20T03:14:31.939Z,4.87
2019-04-20T03:15:09.583Z,5.60
2019-04-20T03:15:57.506Z,5.60
2019-04-20T03:16:33.130Z,4.70
2019-04-20T03:17:21.367Z,5.23
2019-04-20T03:17:58.879Z,5.10
2019-04-20T03:18:37.307Z,5.20
2019-04-20T03:19:14.125Z,5.57
2019-04-20T03:19:52.492Z,4.70
2019-04-20T03:20:43.378Z,4.40
2019-04-20T03:21:26.973Z,4.80
2019-04-20T03:22:04.076Z,5.13
2019-04-20T03:23:07.353Z,4.40
2019-04-20T03:23:31.037Z,4.47
2019-04-20T03:24:14.401Z,4.40
2019-04-20T03:24:48.565Z,4.57
2019-04-20T03:25:45.493Z,5.10
2019-04-20T03:26:29.792Z,4.33
2019-04-20T03:27:29.478Z,4.90
2019-04-20T03:28:15.424Z,4.70
2019-04-20T03:28:56.635Z,4.97
2019-04-20T03:30:43.947Z,4.70
2019-04-20T03:31:29.472Z,4.47
2019-04-20T03:33:34.541Z,3.90
2019-04-20T03:35:22.619Z,4.40
2019-04-20T03:36:11.894Z,4.80
2019-04-20T03:36:49.753Z,4.70
2019-04-20T03:37:28.021Z,4.30
2019-04-20T03:38:00.082Z,4.20
2019-04-20T03:38:38.375Z,4.13
2019-04-20T03:39:18.001Z,4.90
2019-04-20T03:39:55.211Z,4.27
2019-04-20T03:40:36.514Z,5.57
2019-04-20T03:41:13.981Z,4.67
2019-04-20T03:41:48.509Z,4.87
2019-04-20T03:42:24.445Z,5.00
2019-04-20T03:43:05.542Z,4.20
2019-04-20T03:43:45.733Z,3.77
2019-04-20T03:44:27.851Z,4.60
2019-04-20T03:45:09.729Z,4.60
2019-04-20T03:45:52.664Z,4.23
2019-04-20T03:46:31.021Z,4.60
2019-04-20T03:47:08.871Z,4.80
2019-04-20T03:47:58.782Z,4.63
2019-04-20T03:48:41.309Z,5.23
2019-04-20T03:49:27.898Z,5.40
2019-04-20T03:50:07.893Z,3.93
2019-04-20T03:50:46.676Z,3.90
2019-04-20T03:51:37.112Z,4.10
2019-04-20T03:52:26.188Z,4.60
2019-04-20T03:53:13.048Z,4.63
2019-04-20T03:54:06.860Z,4.70
2019-04-20T03:54:54.359Z,4.70
2019-04-20T03:55:56.672Z,5.00
2019-04-20T03:56:49.240Z,4.50
2019-04-20T03:57:38.257Z,4.63
2019-04-20T03:58:35.963Z,4.70
2019-04-20T03:59:36.043Z,5.60
2019-04-20T04:00:37.582Z,4.77
2019-04-20T04:02:02.140Z,4.53
2019-04-20T04:02:37.522Z,4.00
2019-04-20T04:03:34.936Z,4.33
2019-04-20T04:04:21.492Z,4.17
2019-04-20T04:05:07.268Z,4.53
2019-04-20T04:06:08.342Z,4.60
2019-04-20T04:06:40.664Z,4.80
2019-04-20T04:07:24.861Z,4.10
2019-04-20T04:08:09.443Z,4.50
2019-04-20T04:08:42.731Z,4.23
2019-04-20T04:09:25.778Z,4.73
2019-04-20T04:10:11.001Z,4.10
2019-04-20T04:10:55.138Z,4.10
2019-04-20T04:11:36.582Z,4.87
2019-04-20T04:12:25.421Z,4.00
2019-04-20T04:13:16.997Z,3.97
2019-04-20T04:13:56.576Z,4.13
2019-04-20T04:14:36.739Z,4.10
2019-04-20T04:15:16.890Z,4.50
2019-04-20T04:16:01.146Z,4.30
2019-04-20T04:16:42.959Z,3.80
2019-04-20T04:17:22.423Z,4.17
2019-04-20T04:17:57.943Z,4.40
2019-04-20T04:18:40.995Z,4.07
2019-04-20T04:19:23.115Z,4.37
2019-04-20T04:20:05.042Z,4.33
2019-04-20T04:20:46.702Z,4.17
2019-04-20T04:21:35.082Z,4.20
2019-04-20T04:22:12.274Z,3.90
2019-04-20T04:23:00.179Z,4.73
2019-04-20T04:23:36.594Z,4.07
2019-04-20T04:24:14.278Z,4.57
2019-04-20T04:24:54.283Z,4.57
2019-04-20T04:25:29.694Z,4.50
2019-04-20T04:26:16.089Z,3.73
2019-04-20T04:26:56.074Z,4.40
2019-04-20T04:27:40.423Z,4.20
2019-04-20T04:28:22.581Z,4.20
2019-04-20T04:29:00.774Z,4.20
2019-04-20T04:29:43.054Z,4.07
2019-04-20T04:30:18.276Z,3.83
2019-04-20T04:31:04.132Z,4.33
2019-04-20T04:31:45.600Z,4.13
2019-04-20T04:32:29.026Z,4.60
2019-04-20T04:33:32.721Z,4.27
2019-04-20T04:33:55.853Z,4.43
2019-04-20T04:34:22.870Z,4.67
2019-04-20T04:35:03.347Z,16.27
2019-04-20T04:35:50.244Z,22.00
2019-04-20T04:36:25.992Z,25.63
2019-04-20T04:37:10.702Z,11.90
2019-04-20T04:37:50.298Z,7.80
2019-04-20T04:38:35.530Z,6.10
2019-04-20T04:39:19.651Z,8.17
2019-04-20T04:39:56.329Z,8.03
2019-04-20T04:40:42.275Z,6.70
2019-04-20T04:41:20.337Z,4.63
2019-04-20T04:42:07.467Z,5.97
2019-04-20T04:42:42.266Z,6.33
2019-04-20T04:43:21.145Z,5.77
2019-04-20T04:43:58.835Z,5.30
2019-04-20T04:44:35.437Z,4.80
2019-04-20T04:45:06.230Z,5.03
2019-04-20T04:45:41.011Z,4.33
2019-04-20T04:46:18.876Z,4.33
2019-04-20T04:47:02.685Z,3.47
2019-04-20T04:47:41.379Z,3.53
2019-04-20T04:48:31.511Z,3.73
2019-04-20T04:49:09.593Z,3.93
2019-04-20T04:49:48.453Z,4.00
2019-04-20T04:50:27.855Z,4.23
2019-04-20T04:51:11.961Z,4.53
2019-04-20T04:51:55.264Z,3.70
2019-04-20T04:52:38.292Z,3.87
2019-04-20T04:53:20.648Z,4.50
2019-04-20T04:53:57.962Z,4.20
2019-04-20T04:54:37.560Z,3.63
2019-04-20T04:55:22.245Z,4.73
2019-04-20T04:55:54.625Z,4.00
2019-04-20T04:56:28.677Z,3.60
2019-04-20T04:57:09.478Z,4.20
2019-04-20T04:57:51.587Z,4.00
2019-04-20T04:58:29.902Z,4.00
2019-04-20T04:59:10.706Z,4.37
2019-04-20T04:59:51.471Z,4.73
2019-04-20T05:00:32.580Z,3.80
2019-04-20T05:01:16.710Z,3.87
2019-04-20T05:01:54.792Z,4.00
2019-04-20T05:02:40.447Z,4.00
2019-04-20T05:03:27.644Z,4.23
2019-04-20T05:04:23.272Z,4.60
2019-04-20T05:05:19.376Z,4.00
2019-04-20T05:06:06.465Z,4.60
2019-04-20T05:06:41.436Z,4.47
2019-04-20T05:07:20.088Z,4.30
2019-04-20T05:08:00.446Z,3.70
2019-04-20T05:08:36.840Z,4.43
2019-04-20T05:09:14.847Z,4.53
2019-04-20T05:09:50.692Z,4.00
2019-04-20T05:10:30.777Z,5.50
2019-04-20T05:11:11.034Z,4.30
2019-04-20T05:11:59.692Z,3.80
2019-04-20T05:12:34.138Z,4.23
2019-04-20T05:13:13.698Z,4.00
2019-04-20T05:13:58.480Z,4.20
2019-04-20T05:14:45.329Z,4.00
2019-04-20T05:15:24.450Z,5.63
2019-04-20T05:16:06.302Z,7.70
2019-04-20T05:16:49.991Z,8.53
2019-04-20T05:17:34.123Z,6.67
2019-04-20T05:18:16.182Z,4.13
2019-04-20T05:19:11.551Z,4.33
2019-04-20T05:19:29.871Z,4.67
2019-04-20T05:20:09.260Z,4.50
2019-04-20T05:20:54.709Z,4.37
2019-04-20T05:21:49.993Z,5.07
2019-04-20T05:22:26.186Z,4.77
2019-04-20T05:23:08.812Z,4.53
2019-04-20T05:23:55.406Z,4.00
2019-04-20T05:24:38.998Z,4.60
2019-04-20T05:25:50.904Z,3.57
2019-04-20T05:26:39.773Z,4.77
2019-04-20T05:27:36.408Z,4.57
2019-04-20T05:28:13.079Z,4.00
2019-04-20T05:28:48.580Z,3.83
2019-04-20T05:29:25.443Z,4.00
2019-04-20T05:30:01.569Z,5.63
2019-04-20T05:30:46.906Z,5.40
2019-04-20T05:31:24.497Z,4.20
2019-04-20T05:32:07.946Z,4.37
2019-04-20T05:32:52.430Z,4.47
2019-04-20T05:33:27.783Z,4.23
2019-04-20T05:34:25.557Z,5.27
2019-04-20T05:35:07.388Z,4.20
2019-04-20T05:35:43.422Z,4.20
2019-04-20T05:36:24.255Z,4.60
2019-04-20T05:37:03.697Z,5.40
2019-04-20T05:37:48.671Z,4.07
2019-04-20T05:38:34.255Z,4.63
2019-04-20T05:39:17.269Z,5.10
2019-04-20T05:39:50.652Z,4.90
2019-04-20T05:40:35.290Z,4.70
2019-04-20T05:41:07.075Z,4.83
2019-04-20T05:41:50.397Z,4.53
2019-04-20T05:42:32.489Z,4.27
2019-04-20T05:43:31.696Z,4.40
2019-04-20T05:44:16.804Z,4.00
2019-04-20T05:45:01.872Z,4.03
2019-04-20T05:45:38.882Z,4.17
2019-04-20T05:46:26.678Z,4.40
2019-04-20T05:47:06.892Z,4.23
2019-04-20T05:47:43.057Z,4.33
2019-04-20T05:48:23.578Z,3.90
2019-04-20T05:49:13.797Z,3.57
2019-04-20T05:49:45.640Z,3.90
2019-04-20T05:50:30.272Z,4.60
2019-04-20T05:51:15.319Z,3.50
2019-04-20T05:51:56.027Z,3.70
2019-04-20T05:52:45.583Z,4.03
2019-04-20T05:53:14.436Z,3.90
2019-04-20T05:53:50.073Z,3.80
2019-04-20T05:54:37.615Z,3.30
2019-04-20T05:55:16.181Z,3.57
2019-04-20T05:55:51.559Z,3.53
2019-04-20T05:56:35.733Z,3.90
2019-04-20T05:57:23.707Z,3.47
2019-04-20T05:58:05.015Z,3.30
2019-04-20T05:58:33.028Z,4.10
2019-04-20T05:59:14.998Z,4.40
2019-04-20T06:00:05.259Z,4.20
2019-04-20T06:00:43.523Z,3.83
2019-04-20T06:01:20.198Z,4.20
2019-04-20T06:01:58.240Z,3.90
2019-04-20T06:02:37.727Z,4.00
2019-04-20T06:03:15.363Z,3.60
2019-04-20T06:03:55.381Z,4.00
2019-04-20T06:04:51.583Z,3.83
2019-04-20T06:05:25.293Z,4.10
2019-04-20T06:06:03.434Z,3.50
2019-04-20T06:06:38.956Z,4.57
2019-04-20T06:07:21.448Z,3.17
2019-04-20T06:08:01.701Z,3.30
2019-04-20T06:08:45.215Z,3.30
2019-04-20T06:09:22.790Z,3.77
2019-04-20T06:10:09.862Z,3.67
2019-04-20T06:10:38.438Z,3.70
2019-04-20T06:11:24.139Z,2.80
2019-04-20T06:12:15.724Z,3.13
2019-04-20T06:12:40.291Z,4.07
2019-04-20T06:13:38.284Z,3.70
2019-04-20T06:14:39.424Z,3.40
2019-04-20T06:15:42.079Z,3.43
2019-04-20T06:16:14.186Z,4.00
2019-04-20T06:17:21.161Z,3.60
2019-04-20T06:18:02.817Z,3.87
2019-04-20T06:18:51.802Z,3.70
2019-04-20T06:19:48.854Z,3.57
2019-04-20T06:20:11.331Z,3.63
2019-04-20T06:21:00.412Z,4.10
2019-04-20T06:21:57.469Z,4.03
2019-04-20T06:22:45.717Z,4.03
2019-04-20T06:23:54.870Z,4.17
2019-04-20T06:24:39.939Z,4.00
2019-04-20T06:25:34.785Z,3.20
2019-04-20T06:26:49.008Z,3.87
2019-04-20T06:27:28.239Z,3.37
2019-04-20T06:28:02.627Z,3.80
2019-04-20T06:28:40.609Z,3.00
2019-04-20T06:29:22.145Z,3.33
2019-04-20T06:30:08.656Z,3.53
2019-04-20T06:30:41.688Z,3.70
2019-04-20T06:31:30.138Z,4.47
2019-04-20T06:32:17.349Z,3.93
2019-04-20T06:33:31.324Z,4.30
2019-04-20T06:34:39.233Z,4.17
2019-04-20T06:35:30.398Z,4.10
2019-04-20T06:36:15.046Z,4.00
2019-04-20T06:36:38.107Z,3.87
2019-04-20T06:37:14.027Z,3.50
2019-04-20T06:38:03.185Z,3.60
2019-04-20T06:39:20.038Z,3.47
2019-04-20T06:40:07.850Z,3.50
2019-04-20T06:40:55.680Z,3.70
2019-04-20T06:41:37.976Z,3.63
2019-04-20T06:42:13.987Z,3.63
2019-04-20T06:42:35.693Z,3.03
2019-04-20T06:43:20.854Z,3.30
2019-04-20T06:44:02.678Z,3.50
2019-04-20T06:44:48.446Z,3.50
2019-04-20T06:45:28.218Z,3.80
2019-04-20T06:46:07.050Z,3.83
2019-04-20T06:46:47.294Z,3.97
2019-04-20T06:47:22.179Z,3.80
2019-04-20T06:47:57.892Z,3.27
2019-04-20T06:49:29.211Z,3.57
2019-04-20T06:50:03.470Z,3.00
2019-04-20T06:50:38.737Z,3.33
2019-04-20T06:51:22.234Z,3.80
2019-04-20T06:52:25.588Z,3.60
2019-04-20T06:53:32.113Z,3.87
2019-04-20T06:53:57.608Z,3.73
2019-04-20T06:55:08.453Z,2.90
2019-04-20T06:56:09.895Z,3.50
2019-04-20T06:56:38.022Z,3.80
2019-04-20T06:57:50.282Z,3.50
2019-04-20T06:59:21.093Z,4.00
2019-04-20T06:59:55.055Z,3.87
2019-04-20T07:00:34.700Z,3.67
2019-04-20T07:01:23.474Z,3.90
2019-04-20T07:02:02.919Z,3.50
2019-04-20T07:02:41.212Z,3.77
2019-04-20T07:03:37.636Z,3.70
2019-04-20T07:04:26.982Z,3.53
2019-04-20T07:04:57.574Z,4.17
2019-04-20T07:05:22.126Z,4.60
2019-04-20T07:06:26.738Z,3.40
2019-04-20T07:06:51.890Z,3.27
2019-04-20T07:07:27.698Z,3.80
2019-04-20T07:08:17.434Z,3.73
2019-04-20T07:08:56.942Z,3.43
2019-04-20T07:09:35.311Z,4.80
2019-04-20T07:10:13.290Z,3.60
2019-04-20T07:10:56.406Z,3.70
2019-04-20T07:11:29.368Z,4.63
2019-04-20T07:12:12.578Z,3.50
2019-04-20T07:12:45.091Z,4.20
2019-04-20T07:13:22.111Z,4.53
2019-04-20T07:13:59.352Z,3.40
2019-04-20T07:14:45.430Z,3.57
2019-04-20T07:15:29.051Z,3.77
2019-04-20T07:16:28.882Z,4.47
2019-04-20T07:17:39.256Z,4.00
2019-04-20T07:18:15.718Z,4.27
2019-04-20T07:19:09.464Z,4.00
2019-04-20T07:19:55.913Z,3.43
2019-04-20T07:21:05.833Z,3.77
2019-04-20T07:22:05.850Z,4.07
2019-04-20T07:22:49.269Z,3.50
2019-04-20T07:23:31.427Z,3.77
2019-04-20T07:24:14.197Z,3.70
2019-04-20T07:24:56.797Z,3.50
2019-04-20T07:25:33.243Z,3.60
2019-04-20T07:26:16.998Z,3.90
2019-04-20T07:26:49.264Z,4.13
2019-04-20T07:27:29.506Z,4.23
2019-04-20T07:28:12.526Z,4.10
2019-04-20T07:28:53.601Z,4.10
2019-04-20T07:29:34.073Z,3.77
2019-04-20T07:30:12.087Z,3.30
2019-04-20T07:30:56.902Z,3.57
2019-04-20T07:31:29.639Z,3.53
2019-04-20T07:32:10.657Z,3.30
2019-04-20T07:32:57.959Z,3.77
2019-04-20T07:33:40.166Z,4.13
2019-04-20T07:34:20.531Z,3.17
2019-04-20T07:35:03.751Z,3.97
2019-04-20T07:35:40.154Z,4.30
2019-04-20T07:36:24.372Z,3.90
2019-04-20T07:37:29.913Z,4.03
2019-04-20T07:38:08.871Z,4.10
2019-04-20T07:38:34.314Z,3.77
2019-04-20T07:39:14.213Z,4.40
2019-04-20T07:39:53.854Z,4.73
2019-04-20T07:40:32.546Z,3.40
2019-04-20T07:41:17.555Z,3.47
2019-04-20T07:41:56.948Z,4.20
2019-04-20T07:42:45.083Z,3.97
2019-04-20T07:43:09.187Z,3.43
2019-04-20T07:44:04.645Z,4.47
2019-04-20T07:44:44.262Z,3.67
2019-04-20T07:45:24.501Z,3.77
2019-04-20T07:45:56.882Z,3.70
2019-04-20T07:46:47.247Z,3.70
2019-04-20T07:47:27.602Z,3.83
2019-04-20T07:48:01.683Z,3.97
2019-04-20T07:48:36.910Z,3.57
2019-04-20T07:49:18.379Z,4.37
2019-04-20T07:49:55.601Z,3.47
2019-04-20T07:50:35.178Z,3.43
2019-04-20T07:51:10.310Z,3.80
2019-04-20T07:51:44.371Z,3.80
2019-04-20T07:52:33.911Z,3.53
2019-04-20T07:53:18.581Z,3.20
2019-04-20T07:54:10.678Z,3.30
2019-04-20T07:54:46.934Z,3.80
2019-04-20T07:56:17.785Z,3.47
2019-04-20T07:56:42.464Z,3.17
2019-04-20T07:57:19.445Z,3.83
2019-04-20T07:57:53.677Z,3.47
2019-04-20T07:58:31.677Z,3.90
2019-04-20T07:59:13.968Z,3.90
2019-04-20T08:00:00.359Z,4.00
2019-04-20T08:00:55.060Z,3.60
2019-04-20T08:01:47.917Z,4.60
2019-04-20T08:02:42.636Z,9.37
2019-04-20T08:03:33.574Z,24.50
2019-04-20T08:04:18.614Z,11.53
2019-04-20T08:05:06.013Z,16.43
2019-04-20T08:05:44.278Z,12.37
2019-04-20T08:06:35.352Z,8.80
2019-04-20T08:07:09.561Z,7.70
2019-04-20T08:07:57.248Z,9.27
2019-04-20T08:08:43.800Z,6.30
2019-04-20T08:09:22.004Z,13.50
2019-04-20T08:09:57.361Z,10.67
2019-04-20T08:10:51.077Z,6.53
2019-04-20T08:11:32.099Z,4.93
2019-04-20T08:12:18.580Z,4.17
2019-04-20T08:13:02.324Z,4.90
2019-04-20T08:13:45.591Z,5.10
2019-04-20T08:14:28.577Z,4.33
2019-04-20T08:15:03.793Z,4.10
2019-04-20T08:15:58.367Z,4.20
2019-04-20T08:16:29.642Z,4.33
2019-04-20T08:17:14.418Z,4.33
2019-04-20T08:17:50.956Z,4.63
2019-04-20T08:18:27.744Z,5.47
2019-04-20T08:19:19.942Z,4.90
2019-04-20T08:19:45.681Z,5.17
2019-04-20T08:20:21.752Z,4.03
2019-04-20T08:21:02.746Z,4.90
2019-04-20T08:21:48.560Z,4.90
2019-04-20T08:22:26.767Z,7.47
2019-04-20T08:23:05.115Z,6.70
2019-04-20T08:23:44.220Z,5.47
2019-04-20T08:24:21.553Z,4.73
2019-04-20T08:25:02.007Z,4.70
2019-04-20T08:25:38.819Z,5.40
2019-04-20T08:26:13.983Z,5.20
2019-04-20T08:26:53.061Z,6.23
2019-04-20T08:27:46.650Z,10.90
2019-04-20T08:28:42.320Z,5.63
2019-04-20T08:29:36.635Z,9.07
2019-04-20T08:30:23.028Z,6.10
2019-04-20T08:31:17.903Z,4.50
2019-04-20T08:32:13.023Z,5.73
2019-04-20T08:32:58.570Z,5.93
2019-04-20T08:34:04.428Z,4.90
2019-04-20T08:34:39.230Z,4.67
2019-04-20T08:35:23.158Z,4.17
2019-04-20T08:35:58.456Z,3.90
2019-04-20T08:36:39.158Z,3.80
2019-04-20T08:37:11.988Z,4.37
2019-04-20T08:38:14.577Z,3.73
2019-04-20T08:39:00.191Z,4.20
2019-04-20T08:40:01.426Z,4.30
2019-04-20T08:40:37.298Z,3.93
2019-04-20T08:41:19.407Z,4.30
2019-04-20T08:42:00.205Z,4.00
2019-04-20T08:42:51.144Z,4.53
2019-04-20T08:43:32.686Z,4.00
2019-04-20T08:44:04.752Z,4.03
2019-04-20T08:44:58.554Z,4.10
2019-04-20T08:45:23.627Z,4.30
2019-04-20T08:46:00.554Z,3.13
2019-04-20T08:46:53.506Z,4.20
2019-04-20T08:47:32.291Z,3.67
2019-04-20T08:48:11.110Z,4.30
2019-04-20T08:48:46.919Z,3.97
2019-04-20T08:49:29.674Z,4.30
2019-04-20T08:50:22.467Z,4.10
2019-04-20T08:51:03.391Z,4.60
2019-04-20T08:51:49.997Z,4.50
2019-04-20T08:52:46.894Z,4.30
2019-04-20T08:53:42.088Z,3.50
2019-04-20T08:54:21.983Z,4.27
2019-04-20T08:55:07.725Z,4.17
2019-04-20T08:55:44.160Z,4.70
2019-04-20T08:56:18.514Z,5.20
2019-04-20T08:56:53.636Z,5.00
2019-04-20T08:57:27.213Z,4.00
2019-04-20T08:58:09.274Z,4.17
2019-04-20T08:58:48.341Z,4.03
2019-04-20T08:59:26.677Z,3.70
2019-04-20T09:00:06.858Z,3.90
2019-04-20T09:00:50.157Z,4.50
2019-04-20T09:01:29.084Z,4.43
2019-04-20T09:02:10.309Z,4.97
2019-04-20T09:02:48.919Z,5.03
2019-04-20T09:03:32.633Z,4.93
2019-04-20T09:04:15.404Z,4.50
2019-04-20T09:04:58.253Z,5.07
2019-04-20T09:05:42.424Z,4.73
2019-04-20T09:06:26.318Z,4.50
2019-04-20T09:07:04.050Z,4.90
2019-04-20T09:07:46.929Z,4.53
2019-04-20T09:08:23.568Z,4.40
2019-04-20T09:09:11.799Z,4.17
2019-04-20T09:09:56.379Z,4.80
2019-04-20T09:10:40.810Z,4.67
2019-04-20T09:11:12.430Z,4.13
2019-04-20T09:11:54.275Z,4.37
2019-04-20T09:12:36.853Z,4.13
2019-04-20T09:13:08.358Z,4.33
2019-04-20T09:13:43.221Z,4.27
2019-04-20T09:14:23.526Z,4.30
2019-04-20T09:15:06.020Z,3.53
2019-04-20T09:15:44.708Z,4.80
2019-04-20T09:16:31.814Z,4.60
2019-04-20T09:17:23.049Z,3.60
2019-04-20T09:18:20.805Z,4.47
2019-04-20T09:18:56.444Z,4.37
2019-04-20T09:19:41.750Z,5.10
2019-04-20T09:20:27.009Z,4.77
2019-04-20T09:21:01.129Z,4.00
2019-04-20T09:21:46.166Z,4.67
2019-04-20T09:22:44.402Z,4.37
2019-04-20T09:23:35.398Z,3.90
2019-04-20T09:24:19.747Z,4.20
2019-04-20T09:25:01.850Z,3.83
2019-04-20T09:26:16.305Z,4.10
2019-04-20T09:26:59.131Z,4.10
2019-04-20T09:27:29.574Z,4.40
2019-04-20T09:28:35.174Z,4.23
2019-04-20T09:29:23.306Z,4.60
2019-04-20T09:30:04.582Z,4.40
2019-04-20T09:30:39.575Z,4.03
2019-04-20T09:31:33.141Z,5.07
2019-04-20T09:32:24.672Z,3.30
2019-04-20T09:33:09.731Z,4.57
2019-04-20T09:33:55.647Z,5.37
2019-04-20T09:34:41.738Z,4.73
2019-04-20T09:35:25.386Z,5.10
2019-04-20T09:35:58.090Z,4.37
2019-04-20T09:36:46.254Z,5.20
2019-04-20T09:37:47.342Z,3.50
2019-04-20T09:38:20.801Z,4.63
2019-04-20T09:39:30.657Z,4.60
2019-04-20T09:40:55.456Z,4.40
2019-04-20T09:41:33.014Z,4.47
2019-04-20T09:42:00.902Z,3.90
2019-04-20T09:42:39.709Z,4.57
2019-04-20T09:43:34.739Z,3.97
2019-04-20T09:44:13.428Z,3.77
2019-04-20T09:44:55.939Z,5.20
2019-04-20T09:45:47.999Z,4.60